Guymon Municipal Airport
KGUY : rendu visible

Aérodrome :











RETROUVEZ-NOUS SUR...

 
LOGIN :

S'inscrire | Disclaimer

   EN    FR    IT 

 









Légende :    VFR   VFR Marginal   IFR   IFR Intensif   IFR Très Intensif
Visi : 
Plafond : 
>= 8 km
>= 3000ft
5 à 8 km
1000 à 3000 ft
1500m à 5 km
500 à 1000 ft
800 à 1500m
200 à 500 ft
< 800m
< 200 ft
Symboles :   Orages  Brouillard  Fortes neiges  Fortes précipitations  Vent > 20 kt






- Altitude de l'aérodrome : 3123 ft


KGUY - Guymon Municipal

DERNIER METAR :
  • 150753Z AUTO 20006KT 10SM CLR 01/M03 A3032 RMK AO2 SLP263 T00111033

METARs EXPIRÉS :
  • 150653Z AUTO 19008KT 10SM CLR 02/M03 A3034 RMK AO2 SLP268 T00171028
  • 150553Z AUTO 21006KT 10SM CLR 01/M04 A3035 RMK AO2 SLP275 T00061039 10100 20006 401391044 58001

TAF KGUY
Valide du 15 à 06h jusqu'au 16 à 06h UTC


150535Z 1506/1606 20009KT P6SM SKC
FM151600 20018G28KT P6SM SCT300
FM152300 19010KT P6SM BKN300



MET'MAP, la Météo Aéronautique d'un coup d'oeil ! - Copyright ORBIFLY Décembre 2007 - Disclaimer

ORBIFLY MET'MAP TEAM :

Programmation & Développement : Alexandra Zaïnal
Conception & Développement : Baudouin d'Aumeries
Co-Programmation & Développement : Marc-Olivier Méhu
Soutien technique & logistique : Manuel Goepfert

Contact : metmap@orbifly.com




SOURCES & CREDITS :

   NOAA       Earth
Advisory